sensor_id;sensor_type;location;lat;lon;timestamp;temperature;humidity
7476;DHT22;3779;49.216;8.650;2023-03-04T00:01:11;17.40;28.60
7476;DHT22;3779;49.216;8.650;2023-03-04T00:03:58;17.00;28.20
7476;DHT22;3779;49.216;8.650;2023-03-04T00:06:45;17.00;28.40
7476;DHT22;3779;49.216;8.650;2023-03-04T00:09:32;17.00;28.50
7476;DHT22;3779;49.216;8.650;2023-03-04T00:12:18;17.00;28.40
7476;DHT22;3779;49.216;8.650;2023-03-04T00:15:04;17.10;28.60
7476;DHT22;3779;49.216;8.650;2023-03-04T00:17:51;17.10;28.80
7476;DHT22;3779;49.216;8.650;2023-03-04T00:20:37;17.10;28.70
7476;DHT22;3779;49.216;8.650;2023-03-04T00:23:23;17.00;28.10
7476;DHT22;3779;49.216;8.650;2023-03-04T00:26:08;17.10;28.10
7476;DHT22;3779;49.216;8.650;2023-03-04T00:28:55;17.00;27.80
7476;DHT22;3779;49.216;8.650;2023-03-04T00:31:41;17.00;27.50
7476;DHT22;3779;49.216;8.650;2023-03-04T00:34:27;17.10;27.80
7476;DHT22;3779;49.216;8.650;2023-03-04T00:37:13;17.00;27.80
7476;DHT22;3779;49.216;8.650;2023-03-04T00:39:59;17.00;27.60
7476;DHT22;3779;49.216;8.650;2023-03-04T00:42:45;17.00;27.50
7476;DHT22;3779;49.216;8.650;2023-03-04T00:45:32;17.00;27.40
7476;DHT22;3779;49.216;8.650;2023-03-04T00:48:18;17.00;27.50
7476;DHT22;3779;49.216;8.650;2023-03-04T00:51:04;17.00;27.60
7476;DHT22;3779;49.216;8.650;2023-03-04T00:53:50;16.90;27.80
7476;DHT22;3779;49.216;8.650;2023-03-04T00:56:37;16.90;27.50
7476;DHT22;3779;49.216;8.650;2023-03-04T00:59:23;16.90;27.20
7476;DHT22;3779;49.216;8.650;2023-03-04T01:02:09;16.90;27.40
7476;DHT22;3779;49.216;8.650;2023-03-04T01:04:55;16.90;27.40
7476;DHT22;3779;49.216;8.650;2023-03-04T01:07:42;16.90;27.50
7476;DHT22;3779;49.216;8.650;2023-03-04T01:10:28;16.90;28.30
7476;DHT22;3779;49.216;8.650;2023-03-04T01:13:14;16.90;27.90
7476;DHT22;3779;49.216;8.650;2023-03-04T01:16:00;17.00;28.10
7476;DHT22;3779;49.216;8.650;2023-03-04T01:18:48;17.00;28.30
7476;DHT22;3779;49.216;8.650;2023-03-04T01:21:34;17.00;28.30
7476;DHT22;3779;49.216;8.650;2023-03-04T01:24:20;17.00;28.40
7476;DHT22;3779;49.216;8.650;2023-03-04T01:27:07;17.00;28.30
7476;DHT22;3779;49.216;8.650;2023-03-04T01:29:52;17.00;28.20
7476;DHT22;3779;49.216;8.650;2023-03-04T01:32:38;17.00;28.30
7476;DHT22;3779;49.216;8.650;2023-03-04T01:35:24;16.90;28.10
7476;DHT22;3779;49.216;8.650;2023-03-04T01:38:10;17.00;28.20
7476;DHT22;3779;49.216;8.650;2023-03-04T01:40:57;17.30;28.50
7476;DHT22;3779;49.216;8.650;2023-03-04T01:43:43;16.90;28.20
7476;DHT22;3779;49.216;8.650;2023-03-04T01:46:30;17.00;28.30
7476;DHT22;3779;49.216;8.650;2023-03-04T01:49:17;17.00;28.40
7476;DHT22;3779;49.216;8.650;2023-03-04T01:52:07;16.90;28.50
7476;DHT22;3779;49.216;8.650;2023-03-04T01:54:56;16.90;28.70
7476;DHT22;3779;49.216;8.650;2023-03-04T01:57:43;17.00;28.80
7476;DHT22;3779;49.216;8.650;2023-03-04T02:00:32;17.00;28.80
7476;DHT22;3779;49.216;8.650;2023-03-04T02:03:20;17.00;29.10
7476;DHT22;3779;49.216;8.650;2023-03-04T02:06:07;17.00;28.90
7476;DHT22;3779;49.216;8.650;2023-03-04T02:08:54;17.00;28.70
7476;DHT22;3779;49.216;8.650;2023-03-04T02:11:40;17.00;28.50
7476;DHT22;3779;49.216;8.650;2023-03-04T02:14:27;17.00;28.10
7476;DHT22;3779;49.216;8.650;2023-03-04T02:17:14;17.00;27.50
7476;DHT22;3779;49.216;8.650;2023-03-04T02:21:02;16.90;27.50
7476;DHT22;3779;49.216;8.650;2023-03-04T02:23:37;16.90;27.70
7476;DHT22;3779;49.216;8.650;2023-03-04T02:26:29;16.80;27.60
7476;DHT22;3779;49.216;8.650;2023-03-04T02:29:18;16.80;27.50
7476;DHT22;3779;49.216;8.650;2023-03-04T02:32:04;16.90;27.70
7476;DHT22;3779;49.216;8.650;2023-03-04T02:34:51;16.80;27.20
7476;DHT22;3779;49.216;8.650;2023-03-04T02:37:39;16.80;27.40
7476;DHT22;3779;49.216;8.650;2023-03-04T02:40:29;16.80;27.40
7476;DHT22;3779;49.216;8.650;2023-03-04T02:43:16;16.80;27.30
7476;DHT22;3779;49.216;8.650;2023-03-04T02:46:02;16.80;27.00
7476;DHT22;3779;49.216;8.650;2023-03-04T02:48:49;16.80;26.90
7476;DHT22;3779;49.216;8.650;2023-03-04T02:51:36;16.80;27.00
7476;DHT22;3779;49.216;8.650;2023-03-04T02:54:23;16.80;26.90
7476;DHT22;3779;49.216;8.650;2023-03-04T02:57:12;16.80;27.00
7476;DHT22;3779;49.216;8.650;2023-03-04T03:00:00;16.80;26.90
7476;DHT22;3779;49.216;8.650;2023-03-04T03:02:48;16.80;27.00
7476;DHT22;3779;49.216;8.650;2023-03-04T03:05:36;16.80;26.60
7476;DHT22;3779;49.216;8.650;2023-03-04T03:08:23;16.70;26.70
7476;DHT22;3779;49.216;8.650;2023-03-04T03:11:09;16.70;26.60
7476;DHT22;3779;49.216;8.650;2023-03-04T03:13:57;16.70;26.40
7476;DHT22;3779;49.216;8.650;2023-03-04T03:16:43;16.70;26.60
7476;DHT22;3779;49.216;8.650;2023-03-04T03:19:30;17.10;26.90
7476;DHT22;3779;49.216;8.650;2023-03-04T03:22:21;16.70;26.50
7476;DHT22;3779;49.216;8.650;2023-03-04T03:25:08;16.70;26.60
7476;DHT22;3779;49.216;8.650;2023-03-04T03:27:55;16.70;26.40
7476;DHT22;3779;49.216;8.650;2023-03-04T03:30:42;17.10;27.00
7476;DHT22;3779;49.216;8.650;2023-03-04T03:33:28;16.70;26.60
7476;DHT22;3779;49.216;8.650;2023-03-04T03:36:14;16.70;26.50
7476;DHT22;3779;49.216;8.650;2023-03-04T03:39:00;16.70;26.30
7476;DHT22;3779;49.216;8.650;2023-03-04T03:41:46;16.70;26.30
7476;DHT22;3779;49.216;8.650;2023-03-04T03:44:32;16.70;26.20
7476;DHT22;3779;49.216;8.650;2023-03-04T03:47:21;16.70;26.30
7476;DHT22;3779;49.216;8.650;2023-03-04T03:50:07;16.70;26.10
7476;DHT22;3779;49.216;8.650;2023-03-04T03:52:54;16.60;25.90
7476;DHT22;3779;49.216;8.650;2023-03-04T03:55:40;16.60;25.80
7476;DHT22;3779;49.216;8.650;2023-03-04T03:58:26;16.60;25.70
7476;DHT22;3779;49.216;8.650;2023-03-04T04:01:11;16.60;25.60
7476;DHT22;3779;49.216;8.650;2023-03-04T04:04:00;16.60;25.70
7476;DHT22;3779;49.216;8.650;2023-03-04T04:06:46;16.60;25.50
7476;DHT22;3779;49.216;8.650;2023-03-04T04:09:32;16.60;25.50
7476;DHT22;3779;49.216;8.650;2023-03-04T04:12:19;16.60;25.50
7476;DHT22;3779;49.216;8.650;2023-03-04T04:15:06;16.60;25.60
7476;DHT22;3779;49.216;8.650;2023-03-04T04:17:52;16.60;25.40
7476;DHT22;3779;49.216;8.650;2023-03-04T04:20:38;16.60;25.40
7476;DHT22;3779;49.216;8.650;2023-03-04T04:23:24;16.50;24.90
7476;DHT22;3779;49.216;8.650;2023-03-04T04:26:10;16.60;25.20
7476;DHT22;3779;49.216;8.650;2023-03-04T04:28:56;16.60;25.30
7476;DHT22;3779;49.216;8.650;2023-03-04T04:31:42;16.60;25.10
7476;DHT22;3779;49.216;8.650;2023-03-04T04:34:31;16.50;25.10
7476;DHT22;3779;49.216;8.650;2023-03-04T04:37:18;16.50;25.20
7476;DHT22;3779;49.216;8.650;2023-03-04T04:40:04;16.60;25.40
7476;DHT22;3779;49.216;8.650;2023-03-04T04:42:51;16.50;25.20
7476;DHT22;3779;49.216;8.650;2023-03-04T04:45:37;16.50;25.30
7476;DHT22;3779;49.216;8.650;2023-03-04T04:48:23;16.50;25.20
7476;DHT22;3779;49.216;8.650;2023-03-04T04:51:09;16.60;24.40
7476;DHT22;3779;49.216;8.650;2023-03-04T04:53:57;16.70;24.30
7476;DHT22;3779;49.216;8.650;2023-03-04T04:56:43;16.70;24.50
7476;DHT22;3779;49.216;8.650;2023-03-04T04:59:29;16.60;24.70
7476;DHT22;3779;49.216;8.650;2023-03-04T05:02:15;16.50;25.60
7476;DHT22;3779;49.216;8.650;2023-03-04T05:05:06;16.70;26.20
7476;DHT22;3779;49.216;8.650;2023-03-04T05:07:52;16.40;26.50
7476;DHT22;3779;49.216;8.650;2023-03-04T05:10:38;16.60;26.40
7476;DHT22;3779;49.216;8.650;2023-03-04T05:13:24;16.40;26.20
7476;DHT22;3779;49.216;8.650;2023-03-04T05:16:10;16.60;26.50
7476;DHT22;3779;49.216;8.650;2023-03-04T05:18:56;16.50;26.40
7476;DHT22;3779;49.216;8.650;2023-03-04T05:21:42;16.50;26.20
7476;DHT22;3779;49.216;8.650;2023-03-04T05:24:28;16.50;26.10
7476;DHT22;3779;49.216;8.650;2023-03-04T05:27:15;16.50;26.10
7476;DHT22;3779;49.216;8.650;2023-03-04T05:30:00;16.50;26.00
7476;DHT22;3779;49.216;8.650;2023-03-04T05:32:46;16.50;26.60
7476;DHT22;3779;49.216;8.650;2023-03-04T05:35:32;16.50;25.80
7476;DHT22;3779;49.216;8.650;2023-03-04T05:38:18;16.90;26.10
7476;DHT22;3779;49.216;8.650;2023-03-04T05:41:06;16.80;25.90
7476;DHT22;3779;49.216;8.650;2023-03-04T05:43:55;16.60;25.80
7476;DHT22;3779;49.216;8.650;2023-03-04T05:46:41;16.50;26.10
7476;DHT22;3779;49.216;8.650;2023-03-04T05:49:28;16.50;25.70
7476;DHT22;3779;49.216;8.650;2023-03-04T05:52:14;16.50;25.70
7476;DHT22;3779;49.216;8.650;2023-03-04T05:54:59;16.50;25.90
7476;DHT22;3779;49.216;8.650;2023-03-04T05:57:47;16.50;25.90
7476;DHT22;3779;49.216;8.650;2023-03-04T06:00:34;16.50;26.50
7476;DHT22;3779;49.216;8.650;2023-03-04T06:03:21;16.50;26.20
7476;DHT22;3779;49.216;8.650;2023-03-04T06:06:08;16.60;26.90
7476;DHT22;3779;49.216;8.650;2023-03-04T06:08:54;16.60;27.10
7476;DHT22;3779;49.216;8.650;2023-03-04T06:11:40;16.70;26.50
7476;DHT22;3779;49.216;8.650;2023-03-04T06:14:27;16.90;27.50
7476;DHT22;3779;49.216;8.650;2023-03-04T06:17:14;16.60;27.00
7476;DHT22;3779;49.216;8.650;2023-03-04T06:20:00;16.60;26.70
7476;DHT22;3779;49.216;8.650;2023-03-04T06:22:47;16.80;26.80
7476;DHT22;3779;49.216;8.650;2023-03-04T06:25:32;16.60;26.80
7476;DHT22;3779;49.216;8.650;2023-03-04T06:28:20;16.60;27.20
7476;DHT22;3779;49.216;8.650;2023-03-04T06:31:08;16.60;27.50
7476;DHT22;3779;49.216;8.650;2023-03-04T06:33:54;16.60;26.80
7476;DHT22;3779;49.216;8.650;2023-03-04T06:36:40;16.60;26.90
7476;DHT22;3779;49.216;8.650;2023-03-04T06:39:27;16.60;27.30
7476;DHT22;3779;49.216;8.650;2023-03-04T06:42:15;16.60;27.00
7476;DHT22;3779;49.216;8.650;2023-03-04T06:45:02;16.60;26.90
7476;DHT22;3779;49.216;8.650;2023-03-04T06:47:48;16.60;27.70
7476;DHT22;3779;49.216;8.650;2023-03-04T06:50:36;16.60;27.10
7476;DHT22;3779;49.216;8.650;2023-03-04T06:53:23;16.60;27.30
7476;DHT22;3779;49.216;8.650;2023-03-04T06:56:12;16.70;27.40
7476;DHT22;3779;49.216;8.650;2023-03-04T06:58:59;16.70;27.60
7476;DHT22;3779;49.216;8.650;2023-03-04T07:01:45;16.70;27.50
7476;DHT22;3779;49.216;8.650;2023-03-04T07:04:31;16.70;27.60
7476;DHT22;3779;49.216;8.650;2023-03-04T07:07:17;16.70;28.10
7476;DHT22;3779;49.216;8.650;2023-03-04T07:10:04;16.70;27.90
7476;DHT22;3779;49.216;8.650;2023-03-04T07:12:51;16.70;28.10
7476;DHT22;3779;49.216;8.650;2023-03-04T07:15:37;16.70;27.80
7476;DHT22;3779;49.216;8.650;2023-03-04T07:18:23;16.70;27.90
7476;DHT22;3779;49.216;8.650;2023-03-04T07:21:09;16.70;28.00
7476;DHT22;3779;49.216;8.650;2023-03-04T07:23:56;16.70;28.10
7476;DHT22;3779;49.216;8.650;2023-03-04T07:26:43;16.70;28.20
7476;DHT22;3779;49.216;8.650;2023-03-04T07:29:28;16.70;28.40
7476;DHT22;3779;49.216;8.650;2023-03-04T07:32:14;16.90;28.70
7476;DHT22;3779;49.216;8.650;2023-03-04T07:35:01;16.70;28.50
7476;DHT22;3779;49.216;8.650;2023-03-04T07:37:48;16.70;28.70
7476;DHT22;3779;49.216;8.650;2023-03-04T07:40:36;16.70;28.80
7476;DHT22;3779;49.216;8.650;2023-03-04T07:43:22;16.70;28.60
7476;DHT22;3779;49.216;8.650;2023-03-04T07:46:09;16.80;29.40
7476;DHT22;3779;49.216;8.650;2023-03-04T07:48:55;16.80;29.10
7476;DHT22;3779;49.216;8.650;2023-03-04T07:51:41;16.80;29.00
7476;DHT22;3779;49.216;8.650;2023-03-04T07:54:28;16.80;29.40
7476;DHT22;3779;49.216;8.650;2023-03-04T07:57:14;16.80;29.60
7476;DHT22;3779;49.216;8.650;2023-03-04T08:00:02;16.80;29.70
7476;DHT22;3779;49.216;8.650;2023-03-04T08:02:59;16.90;29.60
7476;DHT22;3779;49.216;8.650;2023-03-04T08:05:45;16.90;29.80
7476;DHT22;3779;49.216;8.650;2023-03-04T08:08:31;16.90;29.80
7476;DHT22;3779;49.216;8.650;2023-03-04T08:11:19;16.90;29.90
7476;DHT22;3779;49.216;8.650;2023-03-04T08:14:06;16.90;30.00
7476;DHT22;3779;49.216;8.650;2023-03-04T08:16:53;16.90;29.70
7476;DHT22;3779;49.216;8.650;2023-03-04T08:19:41;16.90;29.50
7476;DHT22;3779;49.216;8.650;2023-03-04T08:22:27;16.90;29.90
7476;DHT22;3779;49.216;8.650;2023-03-04T08:25:13;16.90;29.90
7476;DHT22;3779;49.216;8.650;2023-03-04T08:27:59;16.90;30.00
7476;DHT22;3779;49.216;8.650;2023-03-04T08:30:52;16.90;29.50
7476;DHT22;3779;49.216;8.650;2023-03-04T08:33:38;16.90;29.90
7476;DHT22;3779;49.216;8.650;2023-03-04T08:36:25;16.90;29.80
7476;DHT22;3779;49.216;8.650;2023-03-04T08:39:12;17.00;29.80
7476;DHT22;3779;49.216;8.650;2023-03-04T08:41:59;16.90;29.70
7476;DHT22;3779;49.216;8.650;2023-03-04T08:44:46;16.90;29.70
7476;DHT22;3779;49.216;8.650;2023-03-04T08:47:32;16.90;29.60
7476;DHT22;3779;49.216;8.650;2023-03-04T08:50:18;16.90;29.90
7476;DHT22;3779;49.216;8.650;2023-03-04T08:53:04;16.90;30.00
7476;DHT22;3779;49.216;8.650;2023-03-04T08:55:51;16.90;29.80
7476;DHT22;3779;49.216;8.650;2023-03-04T08:58:38;16.90;30.40
7476;DHT22;3779;49.216;8.650;2023-03-04T09:01:24;17.00;30.10
7476;DHT22;3779;49.216;8.650;2023-03-04T09:04:10;16.90;29.20
7476;DHT22;3779;49.216;8.650;2023-03-04T09:06:56;16.90;30.00
7476;DHT22;3779;49.216;8.650;2023-03-04T09:09:43;16.90;30.60
7476;DHT22;3779;49.216;8.650;2023-03-04T09:12:29;17.00;30.80
7476;DHT22;3779;49.216;8.650;2023-03-04T09:15:17;17.00;31.10
7476;DHT22;3779;49.216;8.650;2023-03-04T09:18:04;17.00;30.70
7476;DHT22;3779;49.216;8.650;2023-03-04T09:20:51;17.00;30.70
7476;DHT22;3779;49.216;8.650;2023-03-04T09:23:38;17.00;31.00
7476;DHT22;3779;49.216;8.650;2023-03-04T09:26:27;17.10;31.00
7476;DHT22;3779;49.216;8.650;2023-03-04T09:29:14;17.10;31.40
7476;DHT22;3779;49.216;8.650;2023-03-04T09:32:00;17.10;31.20
7476;DHT22;3779;49.216;8.650;2023-03-04T09:34:52;17.10;31.10
7476;DHT22;3779;49.216;8.650;2023-03-04T09:37:38;17.10;31.90
7476;DHT22;3779;49.216;8.650;2023-03-04T09:40:29;17.10;31.30
7476;DHT22;3779;49.216;8.650;2023-03-04T09:43:22;17.10;31.50
7476;DHT22;3779;49.216;8.650;2023-03-04T09:46:19;17.10;31.60
7476;DHT22;3779;49.216;8.650;2023-03-04T09:49:10;17.10;31.90
7476;DHT22;3779;49.216;8.650;2023-03-04T09:55:37;17.10;32.20
7476;DHT22;3779;49.216;8.650;2023-03-04T10:01:48;17.10;32.00
7476;DHT22;3779;49.216;8.650;2023-03-04T10:04:45;17.10;32.00
7476;DHT22;3779;49.216;8.650;2023-03-04T10:07:32;17.10;32.10
7476;DHT22;3779;49.216;8.650;2023-03-04T10:10:21;17.10;32.50
7476;DHT22;3779;49.216;8.650;2023-03-04T10:12:53;17.10;32.30
7476;DHT22;3779;49.216;8.650;2023-03-04T10:15:38;17.10;31.90
7476;DHT22;3779;49.216;8.650;2023-03-04T10:19:46;17.10;32.10
7476;DHT22;3779;49.216;8.650;2023-03-04T10:22:16;17.30;32.70
7476;DHT22;3779;49.216;8.650;2023-03-04T10:25:22;17.30;33.20
7476;DHT22;3779;49.216;8.650;2023-03-04T10:28:18;17.30;31.60
7476;DHT22;3779;49.216;8.650;2023-03-04T10:33:55;17.20;31.30
7476;DHT22;3779;49.216;8.650;2023-03-04T10:37:04;17.20;30.70
7476;DHT22;3779;49.216;8.650;2023-03-04T10:39:53;17.20;31.50
7476;DHT22;3779;49.216;8.650;2023-03-04T10:42:39;17.20;30.90
7476;DHT22;3779;49.216;8.650;2023-03-04T10:45:30;17.50;31.10
7476;DHT22;3779;49.216;8.650;2023-03-04T10:48:23;17.20;31.10
7476;DHT22;3779;49.216;8.650;2023-03-04T10:51:22;17.20;30.80
7476;DHT22;3779;49.216;8.650;2023-03-04T10:57:15;17.20;31.10
7476;DHT22;3779;49.216;8.650;2023-03-04T11:06:21;17.20;30.70
7476;DHT22;3779;49.216;8.650;2023-03-04T11:09:21;17.20;30.70
7476;DHT22;3779;49.216;8.650;2023-03-04T11:12:15;17.30;30.60
7476;DHT22;3779;49.216;8.650;2023-03-04T11:15:18;17.30;30.70
7476;DHT22;3779;49.216;8.650;2023-03-04T11:18:09;17.30;30.50
7476;DHT22;3779;49.216;8.650;2023-03-04T11:20:57;17.30;30.90
7476;DHT22;3779;49.216;8.650;2023-03-04T11:23:55;17.30;30.60
7476;DHT22;3779;49.216;8.650;2023-03-04T11:26:59;17.30;30.50
7476;DHT22;3779;49.216;8.650;2023-03-04T11:30:21;17.30;31.10
7476;DHT22;3779;49.216;8.650;2023-03-04T11:33:42;17.30;31.20
7476;DHT22;3779;49.216;8.650;2023-03-04T11:36:56;17.30;31.00
7476;DHT22;3779;49.216;8.650;2023-03-04T11:40:02;17.50;31.10
7476;DHT22;3779;49.216;8.650;2023-03-04T11:43:01;17.50;31.40
7476;DHT22;3779;49.216;8.650;2023-03-04T11:52:15;18.20;28.40
7476;DHT22;3779;49.216;8.650;2023-03-04T12:01:14;17.70;30.30
7476;DHT22;3779;49.216;8.650;2023-03-04T12:05:03;17.60;30.10
7476;DHT22;3779;49.216;8.650;2023-03-04T12:10:48;17.50;30.50
7476;DHT22;3779;49.216;8.650;2023-03-04T12:16:52;17.60;30.60
7476;DHT22;3779;49.216;8.650;2023-03-04T12:22:49;17.70;30.60
7476;DHT22;3779;49.216;8.650;2023-03-04T12:25:59;18.00;31.50
7476;DHT22;3779;49.216;8.650;2023-03-04T12:29:02;17.60;30.30
7476;DHT22;3779;49.216;8.650;2023-03-04T12:32:17;17.60;30.20
7476;DHT22;3779;49.216;8.650;2023-03-04T12:38:23;17.60;30.40
7476;DHT22;3779;49.216;8.650;2023-03-04T12:41:40;17.60;29.90
7476;DHT22;3779;49.216;8.650;2023-03-04T12:44:36;17.60;30.40
7476;DHT22;3779;49.216;8.650;2023-03-04T12:51:02;17.60;30.80
7476;DHT22;3779;49.216;8.650;2023-03-04T12:54:14;17.60;30.30
7476;DHT22;3779;49.216;8.650;2023-03-04T13:00:19;17.60;30.00
7476;DHT22;3779;49.216;8.650;2023-03-04T13:03:14;17.60;30.00
7476;DHT22;3779;49.216;8.650;2023-03-04T13:06:13;17.60;30.00
7476;DHT22;3779;49.216;8.650;2023-03-04T13:09:25;17.60;30.00
7476;DHT22;3779;49.216;8.650;2023-03-04T13:12:14;17.60;30.20
7476;DHT22;3779;49.216;8.650;2023-03-04T13:18:01;17.60;30.00
7476;DHT22;3779;49.216;8.650;2023-03-04T13:21:05;17.70;30.70
7476;DHT22;3779;49.216;8.650;2023-03-04T13:23:52;17.60;30.50
7476;DHT22;3779;49.216;8.650;2023-03-04T13:26:38;17.70;30.00
7476;DHT22;3779;49.216;8.650;2023-03-04T13:32:12;17.80;29.70
7476;DHT22;3779;49.216;8.650;2023-03-04T13:34:58;17.70;29.50
7476;DHT22;3779;49.216;8.650;2023-03-04T13:37:57;17.70;29.10
7476;DHT22;3779;49.216;8.650;2023-03-04T13:40:44;17.70;29.70
7476;DHT22;3779;49.216;8.650;2023-03-04T13:43:54;17.70;29.60
7476;DHT22;3779;49.216;8.650;2023-03-04T13:46:41;17.80;29.90
7476;DHT22;3779;49.216;8.650;2023-03-04T13:49:27;17.70;29.50
7476;DHT22;3779;49.216;8.650;2023-03-04T13:52:38;17.90;29.70
7476;DHT22;3779;49.216;8.650;2023-03-04T13:55:35;17.70;30.10
7476;DHT22;3779;49.216;8.650;2023-03-04T13:58:26;17.70;30.00
7476;DHT22;3779;49.216;8.650;2023-03-04T14:04:32;17.80;30.10
7476;DHT22;3779;49.216;8.650;2023-03-04T14:07:35;17.80;29.50
7476;DHT22;3779;49.216;8.650;2023-03-04T14:10:23;17.80;29.40
7476;DHT22;3779;49.216;8.650;2023-03-04T14:15:58;17.70;29.30
7476;DHT22;3779;49.216;8.650;2023-03-04T14:18:45;17.70;29.40
7476;DHT22;3779;49.216;8.650;2023-03-04T14:21:32;17.70;29.80
7476;DHT22;3779;49.216;8.650;2023-03-04T14:24:22;17.70;29.40
7476;DHT22;3779;49.216;8.650;2023-03-04T14:27:13;17.70;29.50
7476;DHT22;3779;49.216;8.650;2023-03-04T14:30:18;17.70;29.50
7476;DHT22;3779;49.216;8.650;2023-03-04T14:33:07;17.70;29.40
7476;DHT22;3779;49.216;8.650;2023-03-04T14:35:57;17.70;29.30
7476;DHT22;3779;49.216;8.650;2023-03-04T14:38:49;17.60;29.40
7476;DHT22;3779;49.216;8.650;2023-03-04T14:41:39;17.60;29.40
7476;DHT22;3779;49.216;8.650;2023-03-04T14:47:41;17.60;29.30
7476;DHT22;3779;49.216;8.650;2023-03-04T14:50:30;17.60;29.30
7476;DHT22;3779;49.216;8.650;2023-03-04T14:53:19;17.90;29.40
7476;DHT22;3779;49.216;8.650;2023-03-04T14:56:07;17.60;29.90
7476;DHT22;3779;49.216;8.650;2023-03-04T14:58:56;17.60;29.70
7476;DHT22;3779;49.216;8.650;2023-03-04T15:01:47;17.70;29.80
7476;DHT22;3779;49.216;8.650;2023-03-04T15:04:33;17.70;29.60
7476;DHT22;3779;49.216;8.650;2023-03-04T15:07:35;17.70;29.40
7476;DHT22;3779;49.216;8.650;2023-03-04T15:10:25;17.60;29.40
7476;DHT22;3779;49.216;8.650;2023-03-04T15:13:14;17.60;29.30
7476;DHT22;3779;49.216;8.650;2023-03-04T15:16:00;17.60;29.20
7476;DHT22;3779;49.216;8.650;2023-03-04T15:19:19;17.60;29.20
7476;DHT22;3779;49.216;8.650;2023-03-04T15:22:09;17.60;29.50
7476;DHT22;3779;49.216;8.650;2023-03-04T15:24:55;17.70;29.30
7476;DHT22;3779;49.216;8.650;2023-03-04T15:27:41;17.60;29.30
7476;DHT22;3779;49.216;8.650;2023-03-04T15:30:33;17.60;29.40
7476;DHT22;3779;49.216;8.650;2023-03-04T15:33:19;17.60;29.40
7476;DHT22;3779;49.216;8.650;2023-03-04T15:36:11;17.60;29.50
7476;DHT22;3779;49.216;8.650;2023-03-04T15:39:00;17.60;29.60
7476;DHT22;3779;49.216;8.650;2023-03-04T15:41:47;17.60;29.50
7476;DHT22;3779;49.216;8.650;2023-03-04T15:44:35;17.60;29.50
7476;DHT22;3779;49.216;8.650;2023-03-04T15:47:21;17.60;29.40
7476;DHT22;3779;49.216;8.650;2023-03-04T15:50:08;17.60;29.40
7476;DHT22;3779;49.216;8.650;2023-03-04T15:52:58;17.60;29.50
7476;DHT22;3779;49.216;8.650;2023-03-04T15:55:47;17.60;29.50
7476;DHT22;3779;49.216;8.650;2023-03-04T15:58:33;17.60;29.40
7476;DHT22;3779;49.216;8.650;2023-03-04T16:01:19;17.60;29.20
7476;DHT22;3779;49.216;8.650;2023-03-04T16:04:11;17.70;29.50
7476;DHT22;3779;49.216;8.650;2023-03-04T16:06:57;17.60;29.50
7476;DHT22;3779;49.216;8.650;2023-03-04T16:09:47;17.60;29.50
7476;DHT22;3779;49.216;8.650;2023-03-04T16:12:35;17.60;29.70
7476;DHT22;3779;49.216;8.650;2023-03-04T16:15:24;17.60;29.50
7476;DHT22;3779;49.216;8.650;2023-03-04T16:18:12;17.50;29.60
7476;DHT22;3779;49.216;8.650;2023-03-04T16:20:59;17.60;29.70
7476;DHT22;3779;49.216;8.650;2023-03-04T16:23:47;17.60;29.70
7476;DHT22;3779;49.216;8.650;2023-03-04T16:26:33;17.60;29.80
7476;DHT22;3779;49.216;8.650;2023-03-04T16:29:19;17.60;29.70
7476;DHT22;3779;49.216;8.650;2023-03-04T16:32:05;17.60;29.50
7476;DHT22;3779;49.216;8.650;2023-03-04T16:34:52;17.60;29.60
7476;DHT22;3779;49.216;8.650;2023-03-04T16:37:38;17.60;29.60
7476;DHT22;3779;49.216;8.650;2023-03-04T16:40:27;17.60;29.80
7476;DHT22;3779;49.216;8.650;2023-03-04T16:43:13;17.60;29.80
7476;DHT22;3779;49.216;8.650;2023-03-04T16:45:59;17.60;29.70
7476;DHT22;3779;49.216;8.650;2023-03-04T16:48:46;17.60;29.70
7476;DHT22;3779;49.216;8.650;2023-03-04T16:51:40;17.60;29.80
7476;DHT22;3779;49.216;8.650;2023-03-04T16:54:31;17.60;29.80
7476;DHT22;3779;49.216;8.650;2023-03-04T16:57:18;17.60;29.70
7476;DHT22;3779;49.216;8.650;2023-03-04T17:00:04;17.60;29.60
7476;DHT22;3779;49.216;8.650;2023-03-04T17:02:58;17.60;29.70
7476;DHT22;3779;49.216;8.650;2023-03-04T17:05:44;17.60;29.80
7476;DHT22;3779;49.216;8.650;2023-03-04T17:08:32;17.60;29.70
7476;DHT22;3779;49.216;8.650;2023-03-04T17:11:20;17.60;29.60
7476;DHT22;3779;49.216;8.650;2023-03-04T17:14:06;17.60;29.90
7476;DHT22;3779;49.216;8.650;2023-03-04T17:16:52;17.60;29.60
7476;DHT22;3779;49.216;8.650;2023-03-04T17:19:38;17.60;29.70
7476;DHT22;3779;49.216;8.650;2023-03-04T17:22:25;17.60;29.80
7476;DHT22;3779;49.216;8.650;2023-03-04T17:25:12;17.60;29.80
7476;DHT22;3779;49.216;8.650;2023-03-04T17:27:58;17.60;29.90
7476;DHT22;3779;49.216;8.650;2023-03-04T17:30:43;17.60;29.80
7476;DHT22;3779;49.216;8.650;2023-03-04T17:33:30;17.60;29.90
7476;DHT22;3779;49.216;8.650;2023-03-04T17:36:17;17.60;29.90
7476;DHT22;3779;49.216;8.650;2023-03-04T17:39:04;17.60;30.00
7476;DHT22;3779;49.216;8.650;2023-03-04T17:41:51;17.60;30.00
7476;DHT22;3779;49.216;8.650;2023-03-04T17:44:38;17.60;30.00
7476;DHT22;3779;49.216;8.650;2023-03-04T17:47:24;17.60;29.90
7476;DHT22;3779;49.216;8.650;2023-03-04T17:50:10;17.60;29.90
7476;DHT22;3779;49.216;8.650;2023-03-04T17:52:56;17.60;29.90
7476;DHT22;3779;49.216;8.650;2023-03-04T17:55:50;17.60;29.90
7476;DHT22;3779;49.216;8.650;2023-03-04T17:58:36;17.60;30.60
7476;DHT22;3779;49.216;8.650;2023-03-04T18:01:22;17.60;29.90
7476;DHT22;3779;49.216;8.650;2023-03-04T18:04:08;17.60;29.90
7476;DHT22;3779;49.216;8.650;2023-03-04T18:06:53;17.60;30.00
7476;DHT22;3779;49.216;8.650;2023-03-04T18:09:39;17.60;29.90
7476;DHT22;3779;49.216;8.650;2023-03-04T18:12:26;17.60;30.00
7476;DHT22;3779;49.216;8.650;2023-03-04T18:15:12;17.60;29.90
7476;DHT22;3779;49.216;8.650;2023-03-04T18:17:58;17.60;29.90
7476;DHT22;3779;49.216;8.650;2023-03-04T18:20:45;17.60;29.90
7476;DHT22;3779;49.216;8.650;2023-03-04T18:23:31;17.60;30.00
7476;DHT22;3779;49.216;8.650;2023-03-04T18:26:18;17.60;29.90
7476;DHT22;3779;49.216;8.650;2023-03-04T18:29:07;17.60;30.10
7476;DHT22;3779;49.216;8.650;2023-03-04T18:34:49;17.60;30.10
7476;DHT22;3779;49.216;8.650;2023-03-04T18:37:35;17.60;29.00
7476;DHT22;3779;49.216;8.650;2023-03-04T18:40:22;17.60;29.50
7476;DHT22;3779;49.216;8.650;2023-03-04T18:43:09;17.60;28.50
7476;DHT22;3779;49.216;8.650;2023-03-04T18:46:10;17.60;29.50
7476;DHT22;3779;49.216;8.650;2023-03-04T18:49:04;17.70;31.00
7476;DHT22;3779;49.216;8.650;2023-03-04T18:51:51;17.60;30.20
7476;DHT22;3779;49.216;8.650;2023-03-04T18:54:37;17.60;29.60
7476;DHT22;3779;49.216;8.650;2023-03-04T18:57:25;17.50;28.60
7476;DHT22;3779;49.216;8.650;2023-03-04T19:00:14;17.60;29.60
7476;DHT22;3779;49.216;8.650;2023-03-04T19:03:07;17.60;30.20
7476;DHT22;3779;49.216;8.650;2023-03-04T19:05:55;17.60;30.20
7476;DHT22;3779;49.216;8.650;2023-03-04T19:08:44;17.60;30.00
7476;DHT22;3779;49.216;8.650;2023-03-04T19:11:30;17.60;29.60
7476;DHT22;3779;49.216;8.650;2023-03-04T19:14:17;17.60;30.00
7476;DHT22;3779;49.216;8.650;2023-03-04T19:17:06;17.60;29.80
7476;DHT22;3779;49.216;8.650;2023-03-04T19:20:14;17.10;28.10
7476;DHT22;3779;49.216;8.650;2023-03-04T19:23:08;17.60;29.20
7476;DHT22;3779;49.216;8.650;2023-03-04T19:26:00;17.60;29.60
7476;DHT22;3779;49.216;8.650;2023-03-04T19:28:50;17.60;29.30
7476;DHT22;3779;49.216;8.650;2023-03-04T19:31:40;17.60;27.80
7476;DHT22;3779;49.216;8.650;2023-03-04T19:34:26;17.60;29.70